createdAt,value
2018-08-12T00:00:30.525Z,98.90
2018-08-12T00:03:00.336Z,98.90
2018-08-12T00:05:32.529Z,99.00
2018-08-12T00:08:02.133Z,98.90
2018-08-12T00:10:30.853Z,98.90
2018-08-12T00:12:59.513Z,99.00
2018-08-12T00:15:28.777Z,98.90
2018-08-12T00:17:57.937Z,99.00
2018-08-12T00:20:26.734Z,99.00
2018-08-12T00:22:55.399Z,99.00
2018-08-12T00:25:25.107Z,99.00
2018-08-12T00:27:53.807Z,99.00
2018-08-12T00:30:22.605Z,99.00
2018-08-12T00:32:51.371Z,99.00
2018-08-12T00:35:20.281Z,99.40
2018-08-12T00:37:49.050Z,99.20
2018-08-12T00:40:18.149Z,99.50
2018-08-12T00:42:46.948Z,99.10
2018-08-12T00:45:19.018Z,99.10
2018-08-12T00:47:47.702Z,99.20
2018-08-12T00:50:17.639Z,99.20
2018-08-12T00:52:46.718Z,99.30
2018-08-12T00:55:17.712Z,99.20
2018-08-12T00:57:46.949Z,99.30
2018-08-12T01:00:18.473Z,99.30
2018-08-12T01:02:46.771Z,99.30
2018-08-12T01:05:16.656Z,99.30
2018-08-12T01:07:46.180Z,99.40
2018-08-12T01:10:15.872Z,99.30
2018-08-12T01:12:46.115Z,99.80
2018-08-12T01:15:17.325Z,99.40
2018-08-12T01:17:46.112Z,99.40
2018-08-12T01:20:19.433Z,99.50
2018-08-12T01:22:47.657Z,99.50
2018-08-12T01:25:16.472Z,99.40
2018-08-12T01:27:44.922Z,99.40
2018-08-12T01:30:15.724Z,99.40
2018-08-12T01:32:44.771Z,99.40
2018-08-12T01:35:13.820Z,99.30
2018-08-12T01:37:44.309Z,99.30
2018-08-12T01:40:14.074Z,99.30
2018-08-12T01:42:43.241Z,99.30
2018-08-12T01:45:14.258Z,99.30
2018-08-12T01:47:43.400Z,99.20
2018-08-12T01:50:13.700Z,99.20
2018-08-12T01:52:42.994Z,99.40
2018-08-12T01:55:11.540Z,99.30
2018-08-12T01:57:40.248Z,99.20
2018-08-12T02:00:13.248Z,99.20
2018-08-12T02:02:42.011Z,99.20
2018-08-12T02:05:10.849Z,99.20
2018-08-12T02:07:39.618Z,99.20
2018-08-12T02:10:08.911Z,99.20
2018-08-12T02:12:37.193Z,99.10
2018-08-12T02:15:08.448Z,99.00
2018-08-12T02:17:36.874Z,98.90
2018-08-12T02:20:05.917Z,98.80
2018-08-12T02:22:34.667Z,98.70
2018-08-12T02:25:03.691Z,98.60
2018-08-12T02:27:32.471Z,98.60
2018-08-12T02:30:02.101Z,98.50
2018-08-12T02:32:30.726Z,98.60
2018-08-12T02:34:59.378Z,98.50
2018-08-12T02:37:28.097Z,98.60
2018-08-12T02:39:57.931Z,98.70
2018-08-12T02:42:26.752Z,98.70
2018-08-12T02:44:55.824Z,98.80
2018-08-12T02:47:24.412Z,98.80
2018-08-12T02:49:53.061Z,98.80
2018-08-12T02:52:21.772Z,98.90
2018-08-12T02:54:51.432Z,98.80
2018-08-12T02:57:20.165Z,98.80
2018-08-12T02:59:49.931Z,98.80
2018-08-12T03:02:18.589Z,98.80
2018-08-12T03:04:47.288Z,98.80
2018-08-12T03:07:17.103Z,98.60
2018-08-12T03:09:45.936Z,98.70
2018-08-12T03:12:14.476Z,98.70
2018-08-12T03:14:43.306Z,98.70
2018-08-12T03:17:13.604Z,98.80
2018-08-12T03:19:42.691Z,98.80
2018-08-12T03:22:11.454Z,98.90
2018-08-12T03:24:40.651Z,99.00
2018-08-12T03:27:10.138Z,99.00
2018-08-12T03:29:39.843Z,99.00
2018-08-12T03:32:08.587Z,99.00
2018-08-12T03:34:37.402Z,99.10
2018-08-12T03:37:07.360Z,99.20
2018-08-12T03:39:35.786Z,99.30
2018-08-12T03:42:04.458Z,99.30
2018-08-12T03:44:33.753Z,99.40
2018-08-12T03:47:04.988Z,99.50
2018-08-12T03:49:35.100Z,99.60
2018-08-12T03:52:04.442Z,99.70
2018-08-12T03:55:58.600Z,99.70
2018-08-12T03:58:27.069Z,99.80
2018-08-12T04:00:56.121Z,99.80
2018-08-12T04:03:24.717Z,99.90
2018-08-12T04:05:53.509Z,99.90
2018-08-12T04:08:22.877Z,99.90
2018-08-12T04:10:51.143Z,99.90
2018-08-12T04:13:19.899Z,99.90
2018-08-12T04:15:48.703Z,99.90
2018-08-12T04:18:17.602Z,99.90
2018-08-12T04:20:46.343Z,99.90
2018-08-12T04:23:14.928Z,99.90
2018-08-12T04:25:43.715Z,99.90
2018-08-12T04:28:15.995Z,99.90
2018-08-12T04:30:45.175Z,99.80
2018-08-12T04:33:14.221Z,99.80
2018-08-12T04:35:43.091Z,99.70
2018-08-12T04:38:12.021Z,99.80
2018-08-12T04:40:41.322Z,99.80
2018-08-12T04:43:09.677Z,99.80
2018-08-12T04:45:38.272Z,99.80
2018-08-12T04:48:06.963Z,99.80
2018-08-12T04:50:35.648Z,99.90
2018-08-12T04:53:04.755Z,99.90
2018-08-12T04:55:33.429Z,99.80
2018-08-12T04:58:02.228Z,99.80
2018-08-12T05:00:31.078Z,99.80
2018-08-12T05:03:00.060Z,99.90
2018-08-12T05:05:28.994Z,99.90
2018-08-12T05:07:57.468Z,99.90
2018-08-12T05:10:27.349Z,99.90
2018-08-12T05:12:57.125Z,99.90
2018-08-12T05:15:25.981Z,99.90
2018-08-12T05:17:54.628Z,99.90
2018-08-12T05:20:23.520Z,99.90
2018-08-12T05:22:52.091Z,99.90
2018-08-12T05:25:22.405Z,99.90
2018-08-12T05:27:50.909Z,99.90
2018-08-12T05:30:19.965Z,99.90
2018-08-12T05:32:48.558Z,99.90
2018-08-12T05:35:17.196Z,99.90
2018-08-12T05:37:45.903Z,99.90
2018-08-12T05:40:14.752Z,99.90
2018-08-12T05:42:45.180Z,99.90
2018-08-12T05:45:15.163Z,99.90
2018-08-12T05:47:43.920Z,99.90
2018-08-12T05:50:13.033Z,99.90
2018-08-12T05:52:41.801Z,99.90
2018-08-12T05:55:11.215Z,99.90
2018-08-12T05:57:40.249Z,99.90
2018-08-12T06:00:11.285Z,99.90
2018-08-12T06:02:39.907Z,99.90
2018-08-12T06:05:08.925Z,99.90
2018-08-12T06:07:38.374Z,99.90
2018-08-12T06:10:09.008Z,99.90
2018-08-12T06:12:39.476Z,99.90
2018-08-12T06:15:09.520Z,99.90
2018-08-12T06:17:38.918Z,99.90
2018-08-12T06:20:09.497Z,99.90
2018-08-12T06:22:39.284Z,99.90
2018-08-12T06:25:08.956Z,99.90
2018-08-12T06:27:38.068Z,99.90
2018-08-12T06:30:10.056Z,99.90
2018-08-12T06:32:38.810Z,99.80
2018-08-12T06:35:08.340Z,99.70
2018-08-12T06:37:37.513Z,99.60
2018-08-12T06:40:08.986Z,99.20
2018-08-12T06:42:37.992Z,99.40
2018-08-12T06:45:08.267Z,99.40
2018-08-12T06:47:37.341Z,98.90
2018-08-12T06:50:08.452Z,98.90
2018-08-12T06:52:37.311Z,98.60
2018-08-12T06:55:06.359Z,98.90
2018-08-12T06:57:35.484Z,98.60
2018-08-12T07:00:06.389Z,98.40
2018-08-12T07:02:35.021Z,98.20
2018-08-12T07:05:04.681Z,97.80
2018-08-12T07:07:34.964Z,97.70
2018-08-12T07:10:04.609Z,97.50
2018-08-12T07:12:33.388Z,97.40
2018-08-12T07:15:02.263Z,97.10
2018-08-12T07:17:31.244Z,96.80
2018-08-12T07:19:59.993Z,96.40
2018-08-12T07:22:41.757Z,96.50
2018-08-12T07:25:11.673Z,96.20
2018-08-12T07:27:40.914Z,96.60
2018-08-12T07:30:11.954Z,96.20
2018-08-12T07:32:41.279Z,96.10
2018-08-12T07:35:13.191Z,95.80
2018-08-12T07:37:41.927Z,95.70
2018-08-12T07:40:12.857Z,95.60
2018-08-12T07:42:41.731Z,95.60
2018-08-12T07:45:12.835Z,95.30
2018-08-12T07:47:43.097Z,95.10
2018-08-12T07:50:13.196Z,95.10
2018-08-12T07:52:43.304Z,94.70
2018-08-12T07:55:13.356Z,94.70
2018-08-12T07:57:44.096Z,94.80
2018-08-12T08:00:17.585Z,94.40
2018-08-12T08:02:45.971Z,94.30
2018-08-12T08:05:14.863Z,94.50
2018-08-12T08:07:44.878Z,94.10
2018-08-12T08:10:16.140Z,93.80
2018-08-12T08:12:45.633Z,93.70
2018-08-12T08:15:19.880Z,93.50
2018-08-12T08:17:48.504Z,93.30
2018-08-12T08:20:17.764Z,92.80
2018-08-12T08:22:46.664Z,92.70
2018-08-12T08:25:16.652Z,92.60
2018-08-12T08:27:45.233Z,91.70
2018-08-12T08:30:15.615Z,91.80
2018-08-12T08:32:44.586Z,90.70
2018-08-12T08:35:13.990Z,90.80
2018-08-12T08:37:43.795Z,90.70
2018-08-12T08:40:13.766Z,89.00
2018-08-12T08:42:42.866Z,86.40
2018-08-12T08:45:16.724Z,87.20
2018-08-12T08:47:46.679Z,85.10
2018-08-12T08:50:15.974Z,84.10
2018-08-12T08:52:45.045Z,85.20
2018-08-12T08:55:15.449Z,83.90
2018-08-12T08:57:45.172Z,83.20
2018-08-12T09:00:16.842Z,83.70
2018-08-12T09:02:46.600Z,81.80
2018-08-12T09:05:15.905Z,80.00
2018-08-12T09:07:45.237Z,80.70
2018-08-12T09:10:16.135Z,79.50
2018-08-12T09:12:45.935Z,79.70
2018-08-12T09:15:17.494Z,79.90
2018-08-12T09:17:47.922Z,80.00
2018-08-12T09:20:17.764Z,80.30
2018-08-12T09:22:46.523Z,79.10
2018-08-12T09:25:15.784Z,77.60
2018-08-12T09:27:44.228Z,77.00
2018-08-12T09:30:18.060Z,78.20
2018-08-12T09:32:47.285Z,76.50
2018-08-12T09:35:15.698Z,77.20
2018-08-12T09:37:44.363Z,76.60
2018-08-12T09:40:16.628Z,75.50
2018-08-12T09:42:45.740Z,75.50
2018-08-12T09:45:17.605Z,75.40
2018-08-12T09:47:46.709Z,74.50
2018-08-12T09:50:16.756Z,75.90
2018-08-12T09:52:46.070Z,76.50
2018-08-12T09:55:14.817Z,74.60
2018-08-12T09:57:43.249Z,74.30
2018-08-12T10:00:20.436Z,75.00
2018-08-12T10:02:50.715Z,73.40
2018-08-12T10:05:20.661Z,73.60
2018-08-12T10:07:49.298Z,73.30
2018-08-12T10:10:17.920Z,74.60
2018-08-12T10:12:46.825Z,74.80
2018-08-12T10:15:16.154Z,74.10
2018-08-12T10:17:46.409Z,74.50
2018-08-12T10:20:16.151Z,73.80
2018-08-12T10:22:44.807Z,73.20
2018-08-12T10:25:13.532Z,73.20
2018-08-12T10:27:42.277Z,73.70
2018-08-12T10:30:12.335Z,73.80
2018-08-12T10:32:40.785Z,73.20
2018-08-12T10:35:11.716Z,72.90
2018-08-12T10:37:41.940Z,70.90
2018-08-12T10:40:14.069Z,70.80
2018-08-12T10:42:44.878Z,70.00
2018-08-12T10:45:15.120Z,69.50
2018-08-12T10:47:43.753Z,70.10
2018-08-12T10:50:14.697Z,71.00
2018-08-12T10:52:44.583Z,70.50
2018-08-12T10:55:14.621Z,68.50
2018-08-12T10:57:43.844Z,67.30
2018-08-12T11:00:20.073Z,66.10
2018-08-12T11:02:48.460Z,64.70
2018-08-12T11:05:17.756Z,66.30
2018-08-12T11:07:49.170Z,65.30
2018-08-12T11:10:18.000Z,65.50
2018-08-12T11:12:47.727Z,65.60
2018-08-12T11:15:16.541Z,65.50
2018-08-12T11:17:44.868Z,65.60
2018-08-12T11:20:13.871Z,66.00
2018-08-12T11:22:42.424Z,65.00
2018-08-12T11:25:11.853Z,64.30
2018-08-12T11:27:41.048Z,63.90
2018-08-12T11:30:13.414Z,64.30
2018-08-12T11:32:42.463Z,61.60
2018-08-12T11:35:14.440Z,62.70
2018-08-12T11:37:43.420Z,62.00
2018-08-12T11:40:13.658Z,60.70
2018-08-12T11:42:42.498Z,60.10
2018-08-12T11:45:13.794Z,61.30
2018-08-12T11:47:43.538Z,60.70
2018-08-12T11:50:13.560Z,60.00
2018-08-12T11:52:43.424Z,61.70
2018-08-12T11:55:18.876Z,60.60
2018-08-12T11:57:47.289Z,59.40
2018-08-12T12:00:19.747Z,59.60
2018-08-12T12:02:50.448Z,58.10
2018-08-12T12:05:19.561Z,59.70
2018-08-12T12:07:48.313Z,58.40
2018-08-12T12:10:19.132Z,58.30
2018-08-12T12:12:48.949Z,58.40
2018-08-12T12:15:18.078Z,58.80
2018-08-12T12:17:46.939Z,56.70
2018-08-12T12:20:17.523Z,54.80
2018-08-12T12:22:47.016Z,55.80
2018-08-12T12:25:17.000Z,54.90
2018-08-12T12:27:46.341Z,54.20
2018-08-12T12:30:17.605Z,55.40
2018-08-12T12:32:46.722Z,56.00
2018-08-12T12:35:15.795Z,53.30
2018-08-12T12:37:44.465Z,53.30
2018-08-12T12:40:14.930Z,53.80
2018-08-12T12:42:45.340Z,52.10
2018-08-12T12:45:14.555Z,50.70
2018-08-12T12:47:44.060Z,51.70
2018-08-12T12:50:18.487Z,50.80
2018-08-12T12:52:48.601Z,51.90
2018-08-12T12:55:18.103Z,51.60
2018-08-12T12:57:47.099Z,51.60
2018-08-12T13:00:17.396Z,51.00
2018-08-12T13:02:46.046Z,51.20
2018-08-12T13:05:15.753Z,52.00
2018-08-12T13:07:45.184Z,50.70
2018-08-12T13:10:15.163Z,50.00
2018-08-12T13:12:43.887Z,49.70
2018-08-12T13:15:13.447Z,49.20
2018-08-12T13:17:42.489Z,49.90
2018-08-12T13:20:16.368Z,49.20
2018-08-12T13:22:47.027Z,49.10
2018-08-12T13:25:17.768Z,48.90
2018-08-12T13:27:49.538Z,48.50
2018-08-12T13:30:19.176Z,49.30
2018-08-12T13:32:48.795Z,48.60
2018-08-12T13:35:18.009Z,49.10
2018-08-12T13:37:46.784Z,49.40
2018-08-12T13:40:16.783Z,47.50
2018-08-12T13:42:45.459Z,47.90
2018-08-12T13:45:14.427Z,47.10
2018-08-12T13:47:43.950Z,47.40
2018-08-12T13:50:19.157Z,47.10
2018-08-12T13:52:48.090Z,48.30
2018-08-12T13:55:17.669Z,48.20
2018-08-12T13:57:46.716Z,48.30
2018-08-12T14:00:18.016Z,47.80
2018-08-12T14:02:46.980Z,46.80
2018-08-12T14:05:16.878Z,46.90
2018-08-12T14:07:49.357Z,47.10
2018-08-12T14:10:18.264Z,46.70
2018-08-12T14:12:46.822Z,47.80
2018-08-12T14:15:17.395Z,47.70
2018-08-12T14:17:47.508Z,48.30
2018-08-12T14:20:19.069Z,49.10
2018-08-12T14:22:47.742Z,49.10
2018-08-12T14:25:16.269Z,50.00
2018-08-12T14:27:45.423Z,49.00
2018-08-12T14:30:16.175Z,49.20
2018-08-12T14:32:45.931Z,49.90
2018-08-12T14:35:14.777Z,48.00
2018-08-12T14:37:43.663Z,48.90
2018-08-12T14:40:12.810Z,48.70
2018-08-12T14:42:41.070Z,48.50
2018-08-12T14:45:11.346Z,48.20
2018-08-12T14:47:41.884Z,48.40
2018-08-12T14:50:12.837Z,48.30
2018-08-12T14:52:42.192Z,48.50
2018-08-12T14:55:11.524Z,49.50
2018-08-12T14:57:40.974Z,49.20
2018-08-12T15:00:12.783Z,50.20
2018-08-12T15:02:41.260Z,50.30
2018-08-12T15:05:09.913Z,51.10
2018-08-12T15:07:38.656Z,50.70
2018-08-12T15:10:09.005Z,51.10
2018-08-12T15:12:37.316Z,52.50
2018-08-12T15:15:07.957Z,52.00
2018-08-12T15:17:38.358Z,52.10
2018-08-12T15:20:07.096Z,52.20
2018-08-12T15:22:35.758Z,52.60
2018-08-12T15:25:06.912Z,53.10
2018-08-12T15:27:36.952Z,53.90
2018-08-12T15:30:07.037Z,54.30
2018-08-12T15:32:35.838Z,54.70
2018-08-12T15:35:06.031Z,55.30
2018-08-12T15:37:34.640Z,55.80
2018-08-12T15:40:03.328Z,56.00
2018-08-12T15:42:33.158Z,56.40
2018-08-12T15:45:01.592Z,56.90
2018-08-12T15:47:30.844Z,57.20
2018-08-12T15:50:00.219Z,57.50
2018-08-12T15:52:28.733Z,57.40
2018-08-12T15:54:58.816Z,58.00
2018-08-12T15:57:27.165Z,57.90
2018-08-12T15:59:56.432Z,57.70
2018-08-12T16:02:25.801Z,57.80
2018-08-12T16:04:54.792Z,58.30
2018-08-12T16:07:24.087Z,58.50
2018-08-12T16:09:53.125Z,58.80
2018-08-12T16:12:21.601Z,58.90
2018-08-12T16:14:50.240Z,59.10
2018-08-12T16:17:19.045Z,59.60
2018-08-12T16:19:47.728Z,60.20
2018-08-12T16:22:16.391Z,60.40
2018-08-12T16:24:46.400Z,61.10
2018-08-12T16:27:14.742Z,61.70
2018-08-12T16:29:46.222Z,61.20
2018-08-12T16:32:14.561Z,61.60
2018-08-12T16:34:43.677Z,62.10
2018-08-12T16:37:12.516Z,62.60
2018-08-12T16:39:41.450Z,63.00
2018-08-12T16:42:10.121Z,63.40
2018-08-12T16:44:38.699Z,63.80
2018-08-12T16:47:09.659Z,64.20
2018-08-12T16:49:38.329Z,64.40
2018-08-12T16:52:08.083Z,64.60
2018-08-12T16:54:37.153Z,64.20
2018-08-12T16:57:05.701Z,65.00
2018-08-12T16:59:35.641Z,65.00
2018-08-12T17:02:04.310Z,65.20
2018-08-12T17:04:33.350Z,65.50
2018-08-12T17:07:02.186Z,65.60
2018-08-12T17:09:30.838Z,65.60
2018-08-12T17:11:59.731Z,65.60
2018-08-12T17:14:28.981Z,66.10
2018-08-12T17:16:58.183Z,66.10
2018-08-12T17:19:26.903Z,66.20
2018-08-12T17:21:55.437Z,65.80
2018-08-12T17:24:24.360Z,66.20
2018-08-12T17:26:53.075Z,66.80
2018-08-12T17:29:21.706Z,66.50
2018-08-12T17:31:50.421Z,66.60
2018-08-12T17:34:20.315Z,66.60
2018-08-12T17:36:49.208Z,67.00
2018-08-12T17:39:17.910Z,67.40
2018-08-12T17:41:47.384Z,66.90
2018-08-12T17:44:16.137Z,67.70
2018-08-12T17:46:44.773Z,68.10
2018-08-12T17:49:13.460Z,67.10
2018-08-12T17:51:42.083Z,67.00
2018-08-12T17:54:11.892Z,67.20
2018-08-12T17:56:41.652Z,68.40
2018-08-12T17:59:10.602Z,68.00
2018-08-12T18:01:39.611Z,68.00
2018-08-12T18:04:08.429Z,68.00
2018-08-12T18:06:37.191Z,68.40
2018-08-12T18:09:07.189Z,68.60
2018-08-12T18:11:35.997Z,68.70
2018-08-12T18:14:04.904Z,69.00
2018-08-12T18:16:33.544Z,69.30
2018-08-12T18:19:07.912Z,69.90
2018-08-12T18:21:37.219Z,70.50
2018-08-12T18:24:05.571Z,70.40
2018-08-12T18:26:34.476Z,70.10
2018-08-12T18:29:03.133Z,70.20
2018-08-12T18:31:32.799Z,71.10
2018-08-12T18:34:01.489Z,71.60
2018-08-12T18:36:30.353Z,72.00
2018-08-12T18:38:59.141Z,72.80
2018-08-12T18:41:27.931Z,73.30
2018-08-12T18:43:56.589Z,74.90
2018-08-12T18:46:26.321Z,74.80
2018-08-12T18:48:55.166Z,75.60
2018-08-12T18:51:24.220Z,76.10
2018-08-12T18:53:52.693Z,76.40
2018-08-12T18:56:21.566Z,77.00
2018-08-12T18:58:50.356Z,77.60
2018-08-12T19:01:18.961Z,78.20
2018-08-12T19:03:48.216Z,78.90
2018-08-12T19:06:16.483Z,79.40
2018-08-12T19:08:45.894Z,79.90
2018-08-12T19:11:15.081Z,80.40
2018-08-12T19:13:44.127Z,80.60
2018-08-12T19:16:18.050Z,81.40
2018-08-12T19:18:46.296Z,82.10
2018-08-12T19:21:15.013Z,82.70
2018-08-12T19:23:44.917Z,83.10
2018-08-12T19:26:16.555Z,83.40
2018-08-12T19:28:45.250Z,84.00
2018-08-12T19:31:13.993Z,84.50
2018-08-12T19:33:43.358Z,85.00
2018-08-12T19:36:11.696Z,85.40
2018-08-12T19:38:41.333Z,85.70
2018-08-12T19:41:10.022Z,85.80
2018-08-12T19:43:38.703Z,86.30
2018-08-12T19:46:08.634Z,86.50
2018-08-12T19:48:37.288Z,86.50
2018-08-12T19:51:05.940Z,86.70
2018-08-12T19:53:34.677Z,87.00
2018-08-12T19:56:03.288Z,87.30
2018-08-12T19:58:32.634Z,87.80
2018-08-12T20:01:01.673Z,88.00
2018-08-12T20:03:30.373Z,88.20
2018-08-12T20:05:58.996Z,88.60
2018-08-12T20:08:27.562Z,88.90
2018-08-12T20:10:56.340Z,89.20
2018-08-12T20:13:26.536Z,90.10
2018-08-12T20:15:55.746Z,90.00
2018-08-12T20:18:25.918Z,90.10
2018-08-12T20:20:54.225Z,90.20
2018-08-12T20:23:24.400Z,90.30
2018-08-12T20:25:52.917Z,90.30
2018-08-12T20:28:21.780Z,90.30
2018-08-12T20:30:51.706Z,90.30
2018-08-12T20:33:20.461Z,90.40
2018-08-12T20:38:24.662Z,90.70
2018-08-12T20:40:53.199Z,90.80
2018-08-12T20:43:22.013Z,91.00
2018-08-12T20:45:52.240Z,91.10
2018-08-12T20:48:20.696Z,91.30
2018-08-12T20:50:49.144Z,91.50
2018-08-12T20:53:19.211Z,91.60
2018-08-12T20:55:48.448Z,91.70
2018-08-12T20:58:17.489Z,91.80
2018-08-12T21:00:46.616Z,92.00
2018-08-12T21:03:14.904Z,92.00
2018-08-12T21:05:43.673Z,92.10
2018-08-12T21:08:15.484Z,92.20
2018-08-12T21:10:44.306Z,92.20
2018-08-12T21:13:12.904Z,92.30
2018-08-12T21:15:44.857Z,92.40
2018-08-12T21:18:13.718Z,92.40
2018-08-12T21:20:42.437Z,92.50
2018-08-12T21:23:11.136Z,92.60
2018-08-12T21:25:39.699Z,93.00
2018-08-12T21:28:08.428Z,92.60
2018-08-12T21:30:40.719Z,92.80
2018-08-12T21:33:09.001Z,92.90
2018-08-12T21:35:38.801Z,92.90
2018-08-12T21:38:07.589Z,93.00
2018-08-12T21:40:37.285Z,93.10
2018-08-12T21:43:06.097Z,93.10
2018-08-12T21:45:34.702Z,93.20
2018-08-12T21:48:03.457Z,93.20
2018-08-12T21:50:32.365Z,93.30
2018-08-12T21:53:01.276Z,93.40
2018-08-12T21:55:29.987Z,93.50
2018-08-12T21:59:27.982Z,93.50
2018-08-12T22:01:57.294Z,93.60
2018-08-12T22:04:27.922Z,93.60
2018-08-12T22:06:56.896Z,93.70
2018-08-12T22:09:26.571Z,93.90
2018-08-12T22:11:55.074Z,94.00
2018-08-12T22:14:23.677Z,94.30
2018-08-12T22:16:52.452Z,94.20
2018-08-12T22:19:21.444Z,94.40
2018-08-12T22:21:50.240Z,94.70
2018-08-12T22:24:19.946Z,94.50
2018-08-12T22:26:49.549Z,94.50
2018-08-12T22:29:19.412Z,94.60
2018-08-12T22:31:49.174Z,94.80
2018-08-12T22:34:17.880Z,94.90
2018-08-12T22:36:46.647Z,95.00
2018-08-12T22:39:18.385Z,95.00
2018-08-12T22:41:46.776Z,95.00
2018-08-12T22:44:15.349Z,95.20
2018-08-12T22:46:44.623Z,95.30
2018-08-12T22:49:13.652Z,95.30
2018-08-12T22:51:42.367Z,95.30
2018-08-12T22:54:11.777Z,95.30
2018-08-12T22:56:40.990Z,95.40
2018-08-12T22:59:09.862Z,95.40
2018-08-12T23:01:38.566Z,95.40
2018-08-12T23:04:07.680Z,95.50
2018-08-12T23:06:35.987Z,95.70
2018-08-12T23:09:07.165Z,96.00
2018-08-12T23:13:00.861Z,96.10
2018-08-12T23:16:44.759Z,96.30
2018-08-12T23:19:13.204Z,96.60
2018-08-12T23:21:44.885Z,96.90
2018-08-12T23:24:14.101Z,96.80
2018-08-12T23:26:43.352Z,96.70
2018-08-12T23:29:12.021Z,96.60
2018-08-12T23:31:40.888Z,96.70
2018-08-12T23:34:09.547Z,96.80
2018-08-12T23:36:38.217Z,96.80
2018-08-12T23:39:08.495Z,96.90
2018-08-12T23:41:38.372Z,96.90
2018-08-12T23:44:08.201Z,96.90
2018-08-12T23:46:37.089Z,96.90
2018-08-12T23:49:06.314Z,96.90
2018-08-12T23:51:35.005Z,96.80
2018-08-12T23:54:03.771Z,96.70
2018-08-12T23:56:33.408Z,96.60
2018-08-12T23:59:02.409Z,96.50
